sensor_id;sensor_type;location;lat;lon;timestamp;temperature;humidity
3005;DHT22;1512;51.486;6.610;2022-07-06T00:00:14;15.00;99.90
3005;DHT22;1512;51.486;6.610;2022-07-06T00:04:23;15.20;99.90
3005;DHT22;1512;51.486;6.610;2022-07-06T00:08:31;15.10;99.90
3005;DHT22;1512;51.486;6.610;2022-07-06T00:12:40;15.20;99.90
3005;DHT22;1512;51.486;6.610;2022-07-06T00:16:48;15.20;99.90
3005;DHT22;1512;51.486;6.610;2022-07-06T00:20:57;15.30;99.90
3005;DHT22;1512;51.486;6.610;2022-07-06T00:25:06;15.40;99.90
3005;DHT22;1512;51.486;6.610;2022-07-06T00:29:15;15.50;99.90
3005;DHT22;1512;51.486;6.610;2022-07-06T00:33:26;15.50;99.90
3005;DHT22;1512;51.486;6.610;2022-07-06T00:37:35;15.60;99.90
3005;DHT22;1512;51.486;6.610;2022-07-06T00:41:43;15.60;99.90
3005;DHT22;1512;51.486;6.610;2022-07-06T00:45:52;15.60;99.90
3005;DHT22;1512;51.486;6.610;2022-07-06T00:50:02;15.60;99.90
3005;DHT22;1512;51.486;6.610;2022-07-06T00:54:23;15.60;99.90
3005;DHT22;1512;51.486;6.610;2022-07-06T00:58:32;15.50;99.90
3005;DHT22;1512;51.486;6.610;2022-07-06T01:02:41;15.50;99.90
3005;DHT22;1512;51.486;6.610;2022-07-06T01:06:50;15.40;99.90
3005;DHT22;1512;51.486;6.610;2022-07-06T01:10:59;15.30;99.90
3005;DHT22;1512;51.486;6.610;2022-07-06T01:15:20;15.20;99.90
3005;DHT22;1512;51.486;6.610;2022-07-06T01:19:24;15.00;99.90
3005;DHT22;1512;51.486;6.610;2022-07-06T01:23:33;14.90;99.90
3005;DHT22;1512;51.486;6.610;2022-07-06T01:27:43;14.80;99.90
3005;DHT22;1512;51.486;6.610;2022-07-06T01:31:52;14.70;99.90
3005;DHT22;1512;51.486;6.610;2022-07-06T01:36:01;14.60;99.90
3005;DHT22;1512;51.486;6.610;2022-07-06T01:40:11;14.40;99.90
3005;DHT22;1512;51.486;6.610;2022-07-06T01:44:20;14.50;99.90
3005;DHT22;1512;51.486;6.610;2022-07-06T01:48:29;14.40;99.90
3005;DHT22;1512;51.486;6.610;2022-07-06T01:52:37;14.50;99.90
3005;DHT22;1512;51.486;6.610;2022-07-06T01:56:46;14.60;99.90
3005;DHT22;1512;51.486;6.610;2022-07-06T02:00:55;14.70;99.90
3005;DHT22;1512;51.486;6.610;2022-07-06T02:05:04;14.80;99.90
3005;DHT22;1512;51.486;6.610;2022-07-06T02:09:13;14.90;99.90
3005;DHT22;1512;51.486;6.610;2022-07-06T02:13:21;14.90;99.90
3005;DHT22;1512;51.486;6.610;2022-07-06T02:17:31;14.90;99.90
3005;DHT22;1512;51.486;6.610;2022-07-06T02:21:39;14.70;99.90
3005;DHT22;1512;51.486;6.610;2022-07-06T02:25:48;14.70;99.90
3005;DHT22;1512;51.486;6.610;2022-07-06T02:29:57;14.70;99.90
3005;DHT22;1512;51.486;6.610;2022-07-06T02:34:06;14.70;99.90
3005;DHT22;1512;51.486;6.610;2022-07-06T02:38:14;14.60;99.90
3005;DHT22;1512;51.486;6.610;2022-07-06T02:42:23;14.60;99.90
3005;DHT22;1512;51.486;6.610;2022-07-06T02:46:32;14.60;99.90
3005;DHT22;1512;51.486;6.610;2022-07-06T02:50:40;14.60;99.90
3005;DHT22;1512;51.486;6.610;2022-07-06T02:54:49;14.60;99.90
3005;DHT22;1512;51.486;6.610;2022-07-06T02:58:57;14.60;99.90
3005;DHT22;1512;51.486;6.610;2022-07-06T03:03:06;14.60;99.90
3005;DHT22;1512;51.486;6.610;2022-07-06T03:07:16;14.50;99.90
3005;DHT22;1512;51.486;6.610;2022-07-06T03:11:24;14.50;99.90
3005;DHT22;1512;51.486;6.610;2022-07-06T03:15:33;14.50;99.90
3005;DHT22;1512;51.486;6.610;2022-07-06T03:19:42;14.50;99.90
3005;DHT22;1512;51.486;6.610;2022-07-06T03:23:50;14.40;99.90
3005;DHT22;1512;51.486;6.610;2022-07-06T03:27:59;14.30;99.90
3005;DHT22;1512;51.486;6.610;2022-07-06T03:32:08;14.30;99.90
3005;DHT22;1512;51.486;6.610;2022-07-06T03:36:17;14.30;99.90
3005;DHT22;1512;51.486;6.610;2022-07-06T03:40:26;14.30;99.90
3005;DHT22;1512;51.486;6.610;2022-07-06T03:44:35;14.30;99.90
3005;DHT22;1512;51.486;6.610;2022-07-06T03:48:43;14.30;99.90
3005;DHT22;1512;51.486;6.610;2022-07-06T03:52:52;14.10;99.90
3005;DHT22;1512;51.486;6.610;2022-07-06T03:57:01;14.10;99.90
3005;DHT22;1512;51.486;6.610;2022-07-06T04:01:10;14.10;99.90
3005;DHT22;1512;51.486;6.610;2022-07-06T04:05:19;14.00;99.90
3005;DHT22;1512;51.486;6.610;2022-07-06T04:09:28;14.00;99.90
3005;DHT22;1512;51.486;6.610;2022-07-06T04:13:37;13.90;99.90
3005;DHT22;1512;51.486;6.610;2022-07-06T04:17:46;13.90;99.90
3005;DHT22;1512;51.486;6.610;2022-07-06T04:22:02;14.00;99.90
3005;DHT22;1512;51.486;6.610;2022-07-06T04:26:12;14.00;99.90
3005;DHT22;1512;51.486;6.610;2022-07-06T04:30:21;14.00;99.90
3005;DHT22;1512;51.486;6.610;2022-07-06T04:34:29;13.90;99.90
3005;DHT22;1512;51.486;6.610;2022-07-06T04:38:38;13.90;99.90
3005;DHT22;1512;51.486;6.610;2022-07-06T04:42:47;13.80;99.90
3005;DHT22;1512;51.486;6.610;2022-07-06T04:46:55;13.70;99.90
3005;DHT22;1512;51.486;6.610;2022-07-06T04:51:04;13.70;99.90
3005;DHT22;1512;51.486;6.610;2022-07-06T04:55:13;13.70;99.90
3005;DHT22;1512;51.486;6.610;2022-07-06T04:59:22;13.70;99.90
3005;DHT22;1512;51.486;6.610;2022-07-06T05:03:31;13.70;99.90
3005;DHT22;1512;51.486;6.610;2022-07-06T05:07:41;13.70;99.90
3005;DHT22;1512;51.486;6.610;2022-07-06T05:11:49;13.80;99.90
3005;DHT22;1512;51.486;6.610;2022-07-06T05:15:58;13.90;99.90
3005;DHT22;1512;51.486;6.610;2022-07-06T05:20:07;14.00;99.90
3005;DHT22;1512;51.486;6.610;2022-07-06T05:24:16;14.10;99.90
3005;DHT22;1512;51.486;6.610;2022-07-06T05:28:24;14.20;99.90
3005;DHT22;1512;51.486;6.610;2022-07-06T05:32:35;14.20;99.90
3005;DHT22;1512;51.486;6.610;2022-07-06T05:36:43;14.30;99.90
3005;DHT22;1512;51.486;6.610;2022-07-06T05:40:52;14.50;99.90
3005;DHT22;1512;51.486;6.610;2022-07-06T05:45:01;14.70;99.90
3005;DHT22;1512;51.486;6.610;2022-07-06T05:49:11;14.60;99.90
3005;DHT22;1512;51.486;6.610;2022-07-06T05:53:38;14.70;99.90
3005;DHT22;1512;51.486;6.610;2022-07-06T05:57:46;14.60;99.90
3005;DHT22;1512;51.486;6.610;2022-07-06T06:01:56;14.70;99.90
3005;DHT22;1512;51.486;6.610;2022-07-06T06:06:05;14.80;99.90
3005;DHT22;1512;51.486;6.610;2022-07-06T06:10:14;14.90;99.90
3005;DHT22;1512;51.486;6.610;2022-07-06T06:14:23;14.90;99.90
3005;DHT22;1512;51.486;6.610;2022-07-06T06:18:31;15.00;99.90
3005;DHT22;1512;51.486;6.610;2022-07-06T06:22:56;15.10;99.90
3005;DHT22;1512;51.486;6.610;2022-07-06T06:27:05;15.10;99.90
3005;DHT22;1512;51.486;6.610;2022-07-06T06:31:14;15.20;99.90
3005;DHT22;1512;51.486;6.610;2022-07-06T06:35:23;15.20;99.90
3005;DHT22;1512;51.486;6.610;2022-07-06T06:39:32;15.30;99.90
3005;DHT22;1512;51.486;6.610;2022-07-06T06:43:40;15.40;99.90
3005;DHT22;1512;51.486;6.610;2022-07-06T06:47:49;15.50;99.90
3005;DHT22;1512;51.486;6.610;2022-07-06T06:51:58;15.60;99.90
3005;DHT22;1512;51.486;6.610;2022-07-06T06:56:08;15.90;99.90
3005;DHT22;1512;51.486;6.610;2022-07-06T07:00:17;15.90;99.90
3005;DHT22;1512;51.486;6.610;2022-07-06T07:04:26;15.90;99.90
3005;DHT22;1512;51.486;6.610;2022-07-06T07:08:38;15.90;99.90
3005;DHT22;1512;51.486;6.610;2022-07-06T07:12:47;16.00;99.90
3005;DHT22;1512;51.486;6.610;2022-07-06T07:16:56;16.20;99.90
3005;DHT22;1512;51.486;6.610;2022-07-06T07:21:05;16.20;99.90
3005;DHT22;1512;51.486;6.610;2022-07-06T07:25:14;16.20;99.90
3005;DHT22;1512;51.486;6.610;2022-07-06T07:29:24;16.40;99.90
3005;DHT22;1512;51.486;6.610;2022-07-06T07:33:34;16.40;99.90
3005;DHT22;1512;51.486;6.610;2022-07-06T07:37:43;16.60;99.90
3005;DHT22;1512;51.486;6.610;2022-07-06T07:41:51;16.60;99.90
3005;DHT22;1512;51.486;6.610;2022-07-06T07:46:00;16.70;99.90
3005;DHT22;1512;51.486;6.610;2022-07-06T07:50:09;16.90;99.90
3005;DHT22;1512;51.486;6.610;2022-07-06T07:54:18;17.10;99.90
3005;DHT22;1512;51.486;6.610;2022-07-06T07:58:27;17.20;99.90
3005;DHT22;1512;51.486;6.610;2022-07-06T08:02:36;17.40;99.90
3005;DHT22;1512;51.486;6.610;2022-07-06T08:06:44;17.60;99.90
3005;DHT22;1512;51.486;6.610;2022-07-06T08:10:52;17.70;99.90
3005;DHT22;1512;51.486;6.610;2022-07-06T08:15:04;17.70;99.90
3005;DHT22;1512;51.486;6.610;2022-07-06T08:19:13;17.60;99.90
3005;DHT22;1512;51.486;6.610;2022-07-06T08:23:23;17.50;99.90
3005;DHT22;1512;51.486;6.610;2022-07-06T08:27:33;17.60;99.90
3005;DHT22;1512;51.486;6.610;2022-07-06T08:31:41;17.80;99.90
3005;DHT22;1512;51.486;6.610;2022-07-06T08:35:52;17.70;99.90
3005;DHT22;1512;51.486;6.610;2022-07-06T08:40:03;17.70;99.90
3005;DHT22;1512;51.486;6.610;2022-07-06T08:44:13;17.90;99.90
3005;DHT22;1512;51.486;6.610;2022-07-06T08:48:23;17.90;99.90
3005;DHT22;1512;51.486;6.610;2022-07-06T08:52:32;17.80;99.90
3005;DHT22;1512;51.486;6.610;2022-07-06T08:56:42;17.80;99.90
3005;DHT22;1512;51.486;6.610;2022-07-06T09:00:57;18.00;99.90
3005;DHT22;1512;51.486;6.610;2022-07-06T09:05:07;18.30;99.90
3005;DHT22;1512;51.486;6.610;2022-07-06T09:09:21;18.80;99.90
3005;DHT22;1512;51.486;6.610;2022-07-06T09:13:31;19.00;99.90
3005;DHT22;1512;51.486;6.610;2022-07-06T09:17:42;19.30;99.90
3005;DHT22;1512;51.486;6.610;2022-07-06T09:21:51;19.60;99.90
3005;DHT22;1512;51.486;6.610;2022-07-06T09:26:02;19.60;99.90
3005;DHT22;1512;51.486;6.610;2022-07-06T09:30:11;19.50;99.90
3005;DHT22;1512;51.486;6.610;2022-07-06T09:34:20;19.40;99.90
3005;DHT22;1512;51.486;6.610;2022-07-06T09:38:29;19.70;99.90
3005;DHT22;1512;51.486;6.610;2022-07-06T09:42:37;20.10;99.90
3005;DHT22;1512;51.486;6.610;2022-07-06T09:46:47;20.50;99.50
3005;DHT22;1512;51.486;6.610;2022-07-06T09:51:03;20.50;99.90
3005;DHT22;1512;51.486;6.610;2022-07-06T09:55:16;20.50;99.20
3005;DHT22;1512;51.486;6.610;2022-07-06T09:59:28;20.40;98.40
3005;DHT22;1512;51.486;6.610;2022-07-06T10:03:38;20.30;99.30
3005;DHT22;1512;51.486;6.610;2022-07-06T10:07:49;20.60;98.00
3005;DHT22;1512;51.486;6.610;2022-07-06T10:12:01;20.60;92.80
3005;DHT22;1512;51.486;6.610;2022-07-06T10:16:10;20.40;94.00
3005;DHT22;1512;51.486;6.610;2022-07-06T10:20:19;20.30;93.50
3005;DHT22;1512;51.486;6.610;2022-07-06T10:24:30;20.20;93.50
3005;DHT22;1512;51.486;6.610;2022-07-06T10:28:41;20.20;92.10
3005;DHT22;1512;51.486;6.610;2022-07-06T10:32:51;20.20;95.60
3005;DHT22;1512;51.486;6.610;2022-07-06T10:37:00;20.30;98.60
3005;DHT22;1512;51.486;6.610;2022-07-06T10:41:09;20.10;98.90
3005;DHT22;1512;51.486;6.610;2022-07-06T10:49:47;20.80;98.50
3005;DHT22;1512;51.486;6.610;2022-07-06T10:54:05;20.70;98.10
3005;DHT22;1512;51.486;6.610;2022-07-06T10:58:15;20.80;96.80
3005;DHT22;1512;51.486;6.610;2022-07-06T11:02:26;20.80;97.10
3005;DHT22;1512;51.486;6.610;2022-07-06T11:06:38;20.80;97.40
3005;DHT22;1512;51.486;6.610;2022-07-06T11:10:47;20.80;97.30
3005;DHT22;1512;51.486;6.610;2022-07-06T11:14:56;21.00;93.50
3005;DHT22;1512;51.486;6.610;2022-07-06T11:19:16;21.00;91.10
3005;DHT22;1512;51.486;6.610;2022-07-06T11:23:22;21.00;92.70
3005;DHT22;1512;51.486;6.610;2022-07-06T11:27:33;20.90;89.60
3005;DHT22;1512;51.486;6.610;2022-07-06T11:31:44;21.00;87.40
3005;DHT22;1512;51.486;6.610;2022-07-06T11:35:54;20.80;88.60
3005;DHT22;1512;51.486;6.610;2022-07-06T11:40:07;20.60;90.50
3005;DHT22;1512;51.486;6.610;2022-07-06T11:44:16;20.50;91.10
3005;DHT22;1512;51.486;6.610;2022-07-06T11:48:25;20.40;92.10
3005;DHT22;1512;51.486;6.610;2022-07-06T11:52:34;20.40;93.80
3005;DHT22;1512;51.486;6.610;2022-07-06T11:56:51;20.50;93.50
3005;DHT22;1512;51.486;6.610;2022-07-06T12:01:04;20.50;92.00
3005;DHT22;1512;51.486;6.610;2022-07-06T12:05:28;20.60;93.50
3005;DHT22;1512;51.486;6.610;2022-07-06T12:09:25;20.60;90.40
3005;DHT22;1512;51.486;6.610;2022-07-06T12:13:38;20.60;90.00
3005;DHT22;1512;51.486;6.610;2022-07-06T12:17:50;20.90;89.00
3005;DHT22;1512;51.486;6.610;2022-07-06T12:21:59;21.10;90.70
3005;DHT22;1512;51.486;6.610;2022-07-06T12:26:10;21.10;91.50
3005;DHT22;1512;51.486;6.610;2022-07-06T12:30:19;21.20;90.80
3005;DHT22;1512;51.486;6.610;2022-07-06T12:34:30;21.30;89.30
3005;DHT22;1512;51.486;6.610;2022-07-06T12:38:45;21.50;86.80
3005;DHT22;1512;51.486;6.610;2022-07-06T12:42:54;21.90;89.10
3005;DHT22;1512;51.486;6.610;2022-07-06T12:47:09;22.00;83.40
3005;DHT22;1512;51.486;6.610;2022-07-06T12:51:19;22.30;79.20
3005;DHT22;1512;51.486;6.610;2022-07-06T12:55:29;22.20;80.50
3005;DHT22;1512;51.486;6.610;2022-07-06T12:59:42;22.10;79.40
3005;DHT22;1512;51.486;6.610;2022-07-06T13:03:57;22.10;80.20
3005;DHT22;1512;51.486;6.610;2022-07-06T13:08:06;22.40;79.00
3005;DHT22;1512;51.486;6.610;2022-07-06T13:12:17;22.80;76.30
3005;DHT22;1512;51.486;6.610;2022-07-06T13:16:26;23.20;76.20
3005;DHT22;1512;51.486;6.610;2022-07-06T13:20:37;23.20;73.60
3005;DHT22;1512;51.486;6.610;2022-07-06T13:24:46;23.10;69.80
3005;DHT22;1512;51.486;6.610;2022-07-06T13:28:55;22.70;73.70
3005;DHT22;1512;51.486;6.610;2022-07-06T13:33:04;22.60;73.30
3005;DHT22;1512;51.486;6.610;2022-07-06T13:37:13;22.90;72.00
3005;DHT22;1512;51.486;6.610;2022-07-06T13:41:22;23.30;68.40
3005;DHT22;1512;51.486;6.610;2022-07-06T13:45:30;23.30;69.80
3005;DHT22;1512;51.486;6.610;2022-07-06T13:49:39;23.50;69.00
3005;DHT22;1512;51.486;6.610;2022-07-06T13:53:50;23.70;67.80
3005;DHT22;1512;51.486;6.610;2022-07-06T13:57:59;23.60;67.40
3005;DHT22;1512;51.486;6.610;2022-07-06T14:02:08;23.40;61.70
3005;DHT22;1512;51.486;6.610;2022-07-06T14:06:18;23.20;67.10
3005;DHT22;1512;51.486;6.610;2022-07-06T14:10:27;23.00;63.30
3005;DHT22;1512;51.486;6.610;2022-07-06T14:14:37;22.80;66.00
3005;DHT22;1512;51.486;6.610;2022-07-06T14:18:46;22.90;66.60
3005;DHT22;1512;51.486;6.610;2022-07-06T14:22:54;22.70;67.50
3005;DHT22;1512;51.486;6.610;2022-07-06T14:27:03;23.20;65.10
3005;DHT22;1512;51.486;6.610;2022-07-06T14:31:12;23.50;65.40
3005;DHT22;1512;51.486;6.610;2022-07-06T14:35:23;23.10;66.30
3005;DHT22;1512;51.486;6.610;2022-07-06T14:39:32;23.40;65.10
3005;DHT22;1512;51.486;6.610;2022-07-06T14:43:41;23.60;64.10
3005;DHT22;1512;51.486;6.610;2022-07-06T14:47:50;23.30;63.90
3005;DHT22;1512;51.486;6.610;2022-07-06T14:51:59;22.70;66.00
3005;DHT22;1512;51.486;6.610;2022-07-06T14:56:07;22.50;67.20
3005;DHT22;1512;51.486;6.610;2022-07-06T15:00:17;22.30;67.90
3005;DHT22;1512;51.486;6.610;2022-07-06T15:04:26;22.90;67.80
3005;DHT22;1512;51.486;6.610;2022-07-06T15:08:35;22.90;64.90
3005;DHT22;1512;51.486;6.610;2022-07-06T15:12:44;22.60;67.60
3005;DHT22;1512;51.486;6.610;2022-07-06T15:16:53;22.60;66.00
3005;DHT22;1512;51.486;6.610;2022-07-06T15:21:02;22.40;68.30
3005;DHT22;1512;51.486;6.610;2022-07-06T15:25:10;22.70;69.30
3005;DHT22;1512;51.486;6.610;2022-07-06T15:29:19;23.10;68.60
3005;DHT22;1512;51.486;6.610;2022-07-06T15:33:28;23.40;66.00
3005;DHT22;1512;51.486;6.610;2022-07-06T15:37:37;23.30;65.50
3005;DHT22;1512;51.486;6.610;2022-07-06T15:41:46;23.50;66.40
3005;DHT22;1512;51.486;6.610;2022-07-06T15:45:57;23.70;65.00
3005;DHT22;1512;51.486;6.610;2022-07-06T15:50:09;23.70;63.30
3005;DHT22;1512;51.486;6.610;2022-07-06T15:54:20;23.50;65.00
3005;DHT22;1512;51.486;6.610;2022-07-06T15:58:47;23.20;63.10
3005;DHT22;1512;51.486;6.610;2022-07-06T16:02:56;23.00;66.00
3005;DHT22;1512;51.486;6.610;2022-07-06T16:07:05;23.10;67.70
3005;DHT22;1512;51.486;6.610;2022-07-06T16:11:15;23.00;65.40
3005;DHT22;1512;51.486;6.610;2022-07-06T16:15:24;23.00;67.00
3005;DHT22;1512;51.486;6.610;2022-07-06T16:19:33;23.30;66.50
3005;DHT22;1512;51.486;6.610;2022-07-06T16:23:42;23.30;64.50
3005;DHT22;1512;51.486;6.610;2022-07-06T16:27:51;23.20;68.20
3005;DHT22;1512;51.486;6.610;2022-07-06T16:32:03;23.30;65.10
3005;DHT22;1512;51.486;6.610;2022-07-06T16:36:12;23.30;64.30
3005;DHT22;1512;51.486;6.610;2022-07-06T16:40:23;22.80;64.50
3005;DHT22;1512;51.486;6.610;2022-07-06T16:44:33;22.50;66.00
3005;DHT22;1512;51.486;6.610;2022-07-06T16:48:42;22.50;66.60
3005;DHT22;1512;51.486;6.610;2022-07-06T16:52:51;22.50;66.40
3005;DHT22;1512;51.486;6.610;2022-07-06T16:57:00;22.40;67.00
3005;DHT22;1512;51.486;6.610;2022-07-06T17:01:09;22.30;67.50
3005;DHT22;1512;51.486;6.610;2022-07-06T17:05:18;22.20;68.20
3005;DHT22;1512;51.486;6.610;2022-07-06T17:09:26;22.00;67.90
3005;DHT22;1512;51.486;6.610;2022-07-06T17:13:37;21.90;70.20
3005;DHT22;1512;51.486;6.610;2022-07-06T17:17:46;21.90;70.00
3005;DHT22;1512;51.486;6.610;2022-07-06T17:21:54;21.90;70.60
3005;DHT22;1512;51.486;6.610;2022-07-06T17:26:05;21.90;72.10
3005;DHT22;1512;51.486;6.610;2022-07-06T17:30:14;21.80;71.80
3005;DHT22;1512;51.486;6.610;2022-07-06T17:34:22;21.80;71.50
3005;DHT22;1512;51.486;6.610;2022-07-06T17:38:32;21.70;72.40
3005;DHT22;1512;51.486;6.610;2022-07-06T17:42:41;21.60;72.50
3005;DHT22;1512;51.486;6.610;2022-07-06T17:46:49;21.50;72.50
3005;DHT22;1512;51.486;6.610;2022-07-06T17:50:58;21.50;73.70
3005;DHT22;1512;51.486;6.610;2022-07-06T17:55:07;21.50;75.40
3005;DHT22;1512;51.486;6.610;2022-07-06T17:59:16;21.50;75.60
3005;DHT22;1512;51.486;6.610;2022-07-06T18:03:25;21.50;75.80
3005;DHT22;1512;51.486;6.610;2022-07-06T18:07:34;21.40;74.30
3005;DHT22;1512;51.486;6.610;2022-07-06T18:11:43;21.30;75.10
3005;DHT22;1512;51.486;6.610;2022-07-06T18:15:54;21.20;76.00
3005;DHT22;1512;51.486;6.610;2022-07-06T18:20:03;21.20;76.00
3005;DHT22;1512;51.486;6.610;2022-07-06T18:24:12;21.10;76.80
3005;DHT22;1512;51.486;6.610;2022-07-06T18:28:22;21.10;78.20
3005;DHT22;1512;51.486;6.610;2022-07-06T18:32:32;21.10;77.90
3005;DHT22;1512;51.486;6.610;2022-07-06T18:36:41;21.00;77.50
3005;DHT22;1512;51.486;6.610;2022-07-06T18:40:50;20.90;79.30
3005;DHT22;1512;51.486;6.610;2022-07-06T18:44:59;20.90;80.00
3005;DHT22;1512;51.486;6.610;2022-07-06T18:49:08;20.90;80.00
3005;DHT22;1512;51.486;6.610;2022-07-06T18:53:16;21.00;81.60
3005;DHT22;1512;51.486;6.610;2022-07-06T18:57:27;21.00;82.70
3005;DHT22;1512;51.486;6.610;2022-07-06T19:01:36;21.00;81.70
3005;DHT22;1512;51.486;6.610;2022-07-06T19:05:44;21.00;81.70
3005;DHT22;1512;51.486;6.610;2022-07-06T19:09:53;20.90;83.80
3005;DHT22;1512;51.486;6.610;2022-07-06T19:14:02;20.90;83.90
3005;DHT22;1512;51.486;6.610;2022-07-06T19:18:11;20.80;83.90
3005;DHT22;1512;51.486;6.610;2022-07-06T19:22:22;20.80;83.90
3005;DHT22;1512;51.486;6.610;2022-07-06T19:26:31;20.70;85.70
3005;DHT22;1512;51.486;6.610;2022-07-06T19:30:40;20.70;86.20
3005;DHT22;1512;51.486;6.610;2022-07-06T19:34:49;20.70;87.00
3005;DHT22;1512;51.486;6.610;2022-07-06T19:38:58;20.60;88.00
3005;DHT22;1512;51.486;6.610;2022-07-06T19:43:06;20.60;88.30
3005;DHT22;1512;51.486;6.610;2022-07-06T19:47:15;20.50;89.80
3005;DHT22;1512;51.486;6.610;2022-07-06T19:51:24;20.50;90.30
3005;DHT22;1512;51.486;6.610;2022-07-06T19:55:33;20.60;90.90
3005;DHT22;1512;51.486;6.610;2022-07-06T19:59:41;20.60;90.90
3005;DHT22;1512;51.486;6.610;2022-07-06T20:03:50;20.60;91.70
3005;DHT22;1512;51.486;6.610;2022-07-06T20:07:59;20.50;92.20
3005;DHT22;1512;51.486;6.610;2022-07-06T20:12:08;20.60;95.70
3005;DHT22;1512;51.486;6.610;2022-07-06T20:16:17;20.60;96.00
3005;DHT22;1512;51.486;6.610;2022-07-06T20:20:26;20.60;96.40
3005;DHT22;1512;51.486;6.610;2022-07-06T20:24:35;20.60;96.70
3005;DHT22;1512;51.486;6.610;2022-07-06T20:28:44;20.60;97.60
3005;DHT22;1512;51.486;6.610;2022-07-06T20:32:53;20.60;98.20
3005;DHT22;1512;51.486;6.610;2022-07-06T20:37:02;20.60;99.40
3005;DHT22;1512;51.486;6.610;2022-07-06T20:41:11;20.50;99.70
3005;DHT22;1512;51.486;6.610;2022-07-06T20:45:20;20.40;99.90
3005;DHT22;1512;51.486;6.610;2022-07-06T20:49:28;20.30;99.90
3005;DHT22;1512;51.486;6.610;2022-07-06T20:53:37;20.30;99.90
3005;DHT22;1512;51.486;6.610;2022-07-06T20:57:45;20.20;99.90
3005;DHT22;1512;51.486;6.610;2022-07-06T21:01:54;20.20;99.90
3005;DHT22;1512;51.486;6.610;2022-07-06T21:06:02;20.20;99.90
3005;DHT22;1512;51.486;6.610;2022-07-06T21:10:11;20.20;99.90
3005;DHT22;1512;51.486;6.610;2022-07-06T21:14:20;20.10;99.90
3005;DHT22;1512;51.486;6.610;2022-07-06T21:18:28;20.00;99.90
3005;DHT22;1512;51.486;6.610;2022-07-06T21:22:38;19.90;99.90
3005;DHT22;1512;51.486;6.610;2022-07-06T21:26:47;19.80;99.90
3005;DHT22;1512;51.486;6.610;2022-07-06T21:31:16;19.90;99.90
3005;DHT22;1512;51.486;6.610;2022-07-06T21:35:27;19.80;99.90
3005;DHT22;1512;51.486;6.610;2022-07-06T21:39:36;19.90;99.90
3005;DHT22;1512;51.486;6.610;2022-07-06T21:43:44;19.80;99.90
3005;DHT22;1512;51.486;6.610;2022-07-06T21:47:53;19.90;99.90
3005;DHT22;1512;51.486;6.610;2022-07-06T21:52:02;19.80;99.90
3005;DHT22;1512;51.486;6.610;2022-07-06T21:56:11;19.80;99.90
3005;DHT22;1512;51.486;6.610;2022-07-06T22:00:19;19.80;99.90
3005;DHT22;1512;51.486;6.610;2022-07-06T22:04:28;19.80;99.90
3005;DHT22;1512;51.486;6.610;2022-07-06T22:08:37;19.70;99.90
3005;DHT22;1512;51.486;6.610;2022-07-06T22:12:45;19.80;99.90
3005;DHT22;1512;51.486;6.610;2022-07-06T22:16:54;19.80;99.90
3005;DHT22;1512;51.486;6.610;2022-07-06T22:21:03;19.80;99.90
3005;DHT22;1512;51.486;6.610;2022-07-06T22:25:12;19.80;99.90
3005;DHT22;1512;51.486;6.610;2022-07-06T22:29:20;19.70;99.90
3005;DHT22;1512;51.486;6.610;2022-07-06T22:33:29;19.70;99.90
3005;DHT22;1512;51.486;6.610;2022-07-06T22:37:38;19.70;99.90
3005;DHT22;1512;51.486;6.610;2022-07-06T22:41:47;19.70;99.90
3005;DHT22;1512;51.486;6.610;2022-07-06T22:45:56;19.60;99.90
3005;DHT22;1512;51.486;6.610;2022-07-06T22:50:06;19.60;99.90
3005;DHT22;1512;51.486;6.610;2022-07-06T22:54:15;19.60;99.90
3005;DHT22;1512;51.486;6.610;2022-07-06T22:58:24;19.60;99.90
3005;DHT22;1512;51.486;6.610;2022-07-06T23:02:33;19.60;99.90
3005;DHT22;1512;51.486;6.610;2022-07-06T23:06:42;19.50;99.90
3005;DHT22;1512;51.486;6.610;2022-07-06T23:10:51;19.60;99.90
3005;DHT22;1512;51.486;6.610;2022-07-06T23:15:00;19.60;99.90
3005;DHT22;1512;51.486;6.610;2022-07-06T23:19:08;19.60;99.90
3005;DHT22;1512;51.486;6.610;2022-07-06T23:23:17;19.60;99.90
3005;DHT22;1512;51.486;6.610;2022-07-06T23:27:26;19.60;99.90
3005;DHT22;1512;51.486;6.610;2022-07-06T23:31:34;19.60;99.90
3005;DHT22;1512;51.486;6.610;2022-07-06T23:35:43;19.50;99.90
3005;DHT22;1512;51.486;6.610;2022-07-06T23:39:52;19.50;99.90
3005;DHT22;1512;51.486;6.610;2022-07-06T23:44:00;19.50;99.90
3005;DHT22;1512;51.486;6.610;2022-07-06T23:48:09;19.50;99.90
3005;DHT22;1512;51.486;6.610;2022-07-06T23:52:18;19.40;99.90
3005;DHT22;1512;51.486;6.610;2022-07-06T23:56:26;19.40;99.90
